Time;durP1;ratioP1;P1;durP2;ratioP2;P2;SDS_P1;SDS_P2;PMS_P1;PMS_P2;Temp;Humidity;BMP_temperature;BMP_pressure;BME280_temperature;BME280_humidity;BME280_pressure;Samples;Min_cycle;Max_cycle;Signal;HPM_P1;HPM_P2
2021/05/19 00:01:52;;;;;;;23.27;21.87;;;;;;;;;;5021079;28;20415;-87
2021/05/19 00:04:19;;;;;;;24.70;22.90;;;;;;;;;;5019412;28;20993;-86
2021/05/19 00:06:46;;;;;;;24.20;22.67;;;;;;;;;;5020345;28;20447;-86
2021/05/19 00:09:13;;;;;;;22.23;20.93;;;;;;;;;;5019272;28;20471;-85
2021/05/19 00:11:41;;;;;;;22.43;21.00;;;;;;;;;;5019381;28;20422;-86
2021/05/19 00:14:09;;;;;;;22.70;21.02;;;;;;;;;;5018451;28;20421;-86
2021/05/19 00:16:36;;;;;;;23.43;21.90;;;;;;;;;;5019141;28;20209;-87
2021/05/19 00:19:04;;;;;;;22.53;21.17;;;;;;;;;;5019564;28;20574;-86
2021/05/19 00:21:31;;;;;;;23.60;22.00;;;;;;;;;;5019413;28;20439;-86
2021/05/19 00:23:59;;;;;;;23.60;22.10;;;;;;;;;;5019161;28;20449;-86
2021/05/19 00:26:26;;;;;;;23.87;22.27;;;;;;;;;;5018917;28;20443;-86
2021/05/19 00:28:54;;;;;;;22.57;21.00;;;;;;;;;;5019617;28;20431;-86
2021/05/19 00:31:23;;;;;;;22.53;21.13;;;;;;;;;;5019805;28;20852;-86
2021/05/19 00:33:50;;;;;;;22.15;20.85;;;;;;;;;;5018254;28;20451;-86
2021/05/19 00:36:18;;;;;;;24.00;22.50;;;;;;;;;;5018849;28;20201;-85
2021/05/19 00:38:45;;;;;;;22.80;21.30;;;;;;;;;;5020674;28;20231;-85
2021/05/19 00:41:13;;;;;;;23.67;22.27;;;;;;;;;;5019082;28;20564;-86
2021/05/19 00:43:40;;;;;;;22.53;21.23;;;;;;;;;;5019412;28;20795;-86
2021/05/19 00:46:07;;;;;;;24.30;22.33;;;;;;;;;;5019762;28;20874;-86
2021/05/19 00:48:34;;;;;;;24.10;22.33;;;;;;;;;;5018607;28;20498;-85
2021/05/19 00:51:02;;;;;;;25.05;23.25;;;;;;;;;;5018068;28;20437;-87
2021/05/19 00:53:30;;;;;;;23.30;21.90;;;;;;;;;;5018998;28;20280;-88
2021/05/19 00:55:57;;;;;;;24.40;22.70;;;;;;;;;;5020732;28;20830;-88
2021/05/19 00:58:24;;;;;;;25.10;23.50;;;;;;;;;;5019522;28;20498;-88
2021/05/19 01:00:51;;;;;;;26.13;24.30;;;;;;;;;;5034454;28;20493;-88
2021/05/19 01:03:18;;;;;;;26.60;24.80;;;;;;;;;;5037965;28;20413;-87
2021/05/19 01:05:48;;;;;;;24.83;23.13;;;;;;;;;;5038579;28;20470;-87
2021/05/19 01:11:05;;;;;;;24.48;22.95;;;;;;;;;;5038680;28;20235;-88
2021/05/19 01:13:34;;;;;;;25.43;23.73;;;;;;;;;;5038290;28;20669;-88
2021/05/19 01:16:01;;;;;;;26.03;24.33;;;;;;;;;;5040810;28;20489;-88
2021/05/19 01:18:32;;;;;;;25.73;23.83;;;;;;;;;;5038488;28;20493;-87
2021/05/19 01:20:59;;;;;;;25.17;23.48;;;;;;;;;;5040557;28;20199;-88
2021/05/19 01:23:30;;;;;;;25.27;23.45;;;;;;;;;;5038979;28;20185;-88
2021/05/19 01:25:58;;;;;;;24.88;23.15;;;;;;;;;;5039539;28;20288;-88
2021/05/19 01:28:25;;;;;;;25.88;23.95;;;;;;;;;;5045033;28;20247;-88
2021/05/19 01:30:52;;;;;;;26.83;24.92;;;;;;;;;;5039522;28;20204;-88
2021/05/19 01:33:19;;;;;;;27.03;24.83;;;;;;;;;;5021756;28;20252;-88
2021/05/19 01:35:47;;;;;;;26.98;24.98;;;;;;;;;;5041841;28;20418;-88
2021/05/19 01:38:14;;;;;;;27.63;25.50;;;;;;;;;;5044676;28;20224;-88
2021/05/19 01:40:43;;;;;;;27.33;25.42;;;;;;;;;;5048621;28;20422;-88
2021/05/19 01:43:11;;;;;;;29.00;26.80;;;;;;;;;;5044110;28;20190;-89
2021/05/19 01:45:38;;;;;;;27.75;25.75;;;;;;;;;;5043131;28;20219;-88
2021/05/19 01:48:09;;;;;;;26.63;24.73;;;;;;;;;;5041103;28;20713;-88
2021/05/19 01:50:36;;;;;;;27.88;25.77;;;;;;;;;;5040412;28;20193;-88
2021/05/19 01:53:04;;;;;;;27.80;25.60;;;;;;;;;;5040519;28;20599;-88
2021/05/19 01:55:31;;;;;;;25.17;23.45;;;;;;;;;;5039661;28;20193;-88
2021/05/19 01:57:59;;;;;;;26.50;24.60;;;;;;;;;;5039550;28;20219;-89
2021/05/19 02:00:27;;;;;;;25.63;24.02;;;;;;;;;;5019151;28;20233;-89
2021/05/19 02:02:58;;;;;;;27.50;25.30;;;;;;;;;;5020888;28;20199;-89
2021/05/19 02:05:26;;;;;;;26.58;24.67;;;;;;;;;;5019033;28;20205;-89
2021/05/19 02:07:53;;;;;;;26.40;24.50;;;;;;;;;;5021337;28;20197;-90
2021/05/19 02:10:20;;;;;;;27.45;25.40;;;;;;;;;;5019739;28;20243;-90
2021/05/19 02:12:47;;;;;;;26.80;25.00;;;;;;;;;;5020592;28;20196;-89
2021/05/19 02:15:17;;;;;;;25.85;23.95;;;;;;;;;;5023906;28;20197;-89
2021/05/19 02:17:44;;;;;;;29.20;26.67;;;;;;;;;;5020785;28;20213;-89
2021/05/19 02:20:13;;;;;;;27.52;25.52;;;;;;;;;;5020745;28;20197;-89
2021/05/19 02:22:40;;;;;;;27.67;25.63;;;;;;;;;;5020730;28;20205;-89
2021/05/19 02:25:09;;;;;;;27.57;25.37;;;;;;;;;;5019393;28;20473;-89
2021/05/19 02:27:36;;;;;;;27.40;25.52;;;;;;;;;;5019638;28;20501;-89
2021/05/19 02:30:04;;;;;;;26.77;24.98;;;;;;;;;;5019334;28;20233;-89
2021/05/19 02:32:32;;;;;;;28.80;26.20;;;;;;;;;;5018975;28;20211;-89
2021/05/19 02:35:03;;;;;;;28.75;26.60;;;;;;;;;;5019071;28;20471;-89
2021/05/19 02:37:30;;;;;;;27.90;25.95;;;;;;;;;;5019104;28;20218;-88
2021/05/19 02:39:56;;;;;;;27.48;25.48;;;;;;;;;;5020010;28;20190;-89
2021/05/19 02:42:24;;;;;;;26.90;24.90;;;;;;;;;;5020540;28;20241;-89
2021/05/19 02:44:52;;;;;;;26.83;24.92;;;;;;;;;;5017862;28;20239;-89
2021/05/19 02:47:19;;;;;;;27.40;25.45;;;;;;;;;;5023859;28;20192;-88
2021/05/19 02:49:46;;;;;;;26.92;25.08;;;;;;;;;;5017500;28;20193;-89
2021/05/19 02:52:13;;;;;;;27.63;25.73;;;;;;;;;;5017910;28;20203;-89
2021/05/19 02:54:42;;;;;;;27.55;25.65;;;;;;;;;;5018857;28;20197;-89
2021/05/19 02:57:10;;;;;;;27.85;25.92;;;;;;;;;;5019903;28;20201;-89
2021/05/19 02:59:37;;;;;;;26.77;24.98;;;;;;;;;;5025412;28;20251;-88
2021/05/19 03:02:03;;;;;;;28.13;25.95;;;;;;;;;;5039685;28;20192;-89
2021/05/19 03:04:30;;;;;;;26.85;25.10;;;;;;;;;;5039362;28;20228;-88
2021/05/19 03:06:59;;;;;;;26.23;24.52;;;;;;;;;;5039284;28;20199;-89
2021/05/19 03:09:26;;;;;;;28.00;26.10;;;;;;;;;;5040868;28;20239;-89
2021/05/19 03:11:57;;;;;;;28.05;25.88;;;;;;;;;;5041069;28;20197;-89
2021/05/19 03:14:24;;;;;;;28.70;26.67;;;;;;;;;;5037778;28;20188;-89
2021/05/19 03:16:52;;;;;;;28.58;26.63;;;;;;;;;;5037485;28;20215;-89
2021/05/19 03:19:19;;;;;;;27.48;25.67;;;;;;;;;;5038361;28;20217;-89
2021/05/19 03:21:45;;;;;;;27.80;25.90;;;;;;;;;;5021538;28;20601;-88
2021/05/19 03:24:14;;;;;;;28.60;26.63;;;;;;;;;;5021531;28;20193;-89
2021/05/19 03:26:41;;;;;;;30.02;27.83;;;;;;;;;;5021019;28;20189;-88
2021/05/19 03:29:07;;;;;;;29.92;27.80;;;;;;;;;;5038740;28;20192;-88
2021/05/19 03:31:34;;;;;;;29.52;26.92;;;;;;;;;;5038470;28;20283;-89
2021/05/19 03:34:01;;;;;;;28.67;26.73;;;;;;;;;;5039100;28;20231;-89
2021/05/19 03:36:28;;;;;;;29.33;27.23;;;;;;;;;;5039728;28;20213;-89
2021/05/19 03:38:55;;;;;;;29.48;27.30;;;;;;;;;;5039280;28;20216;-89
2021/05/19 03:41:23;;;;;;;30.35;28.13;;;;;;;;;;5039572;28;20205;-89
2021/05/19 03:43:50;;;;;;;29.33;27.30;;;;;;;;;;5037817;28;20196;-89
2021/05/19 03:46:18;;;;;;;30.35;27.83;;;;;;;;;;5040123;28;20426;-89
2021/05/19 03:48:45;;;;;;;30.55;28.25;;;;;;;;;;5047604;28;20196;-88
2021/05/19 03:51:12;;;;;;;30.48;27.98;;;;;;;;;;5041355;28;20192;-89
2021/05/19 03:53:41;;;;;;;31.13;28.67;;;;;;;;;;5038898;28;20206;-88
2021/05/19 03:56:08;;;;;;;34.03;30.70;;;;;;;;;;5039024;28;20191;-88
2021/05/19 03:58:37;;;;;;;35.78;32.63;;;;;;;;;;5035646;28;20809;-89
2021/05/19 04:01:09;;;;;;;38.00;33.97;;;;;;;;;;5034465;28;20246;-84
2021/05/19 04:03:35;;;;;;;36.97;33.10;;;;;;;;;;5034684;28;20192;-84
2021/05/19 04:06:02;;;;;;;40.85;35.00;;;;;;;;;;5034181;28;20207;-84
2021/05/19 04:08:36;;;;;;;34.10;30.75;;;;;;;;;;5035015;28;20635;-89
2021/05/19 04:11:04;;;;;;;42.85;38.28;;;;;;;;;;5035278;28;20194;-89
2021/05/19 04:13:31;;;;;;;37.83;33.70;;;;;;;;;;5034923;28;20208;-84
2021/05/19 04:15:59;;;;;;;38.07;34.10;;;;;;;;;;5034224;28;20196;-84
2021/05/19 04:18:26;;;;;;;35.35;32.00;;;;;;;;;;5016372;28;20459;-84
2021/05/19 04:20:55;;;;;;;39.00;35.20;;;;;;;;;;5034225;28;20187;-88
2021/05/19 04:23:25;;;;;;;41.00;36.77;;;;;;;;;;5034474;28;20450;-89
2021/05/19 04:25:52;;;;;;;40.77;36.67;;;;;;;;;;5035745;28;20940;-89
2021/05/19 04:28:20;;;;;;;42.45;38.45;;;;;;;;;;5038384;28;20446;-84
2021/05/19 04:30:47;;;;;;;43.67;39.30;;;;;;;;;;5039006;28;20192;-84
2021/05/19 04:33:17;;;;;;;41.65;37.38;;;;;;;;;;5021354;28;20447;-83
2021/05/19 04:35:44;;;;;;;40.90;36.10;;;;;;;;;;5039833;28;20192;-85
2021/05/19 04:38:11;;;;;;;41.42;37.30;;;;;;;;;;5038931;28;20220;-85
2021/05/19 04:40:39;;;;;;;42.15;38.17;;;;;;;;;;5038713;28;20549;-85
2021/05/19 04:43:08;;;;;;;39.60;35.90;;;;;;;;;;5038265;28;20192;-84
2021/05/19 04:45:35;;;;;;;40.33;36.33;;;;;;;;;;5037604;28;20497;-85
2021/05/19 04:48:02;;;;;;;42.03;38.22;;;;;;;;;;5037568;28;20206;-84
2021/05/19 04:50:30;;;;;;;41.75;37.65;;;;;;;;;;5037880;28;20192;-84
2021/05/19 04:52:57;;;;;;;41.30;37.40;;;;;;;;;;5037238;28;20198;-84
2021/05/19 04:55:24;;;;;;;44.33;40.30;;;;;;;;;;5037385;28;20470;-84
2021/05/19 04:57:52;;;;;;;40.70;36.73;;;;;;;;;;5038582;28;20214;-84
2021/05/19 05:00:20;;;;;;;43.53;39.77;;;;;;;;;;5038804;28;20452;-84
2021/05/19 05:02:47;;;;;;;43.23;39.13;;;;;;;;;;5039463;28;20446;-84
2021/05/19 05:05:14;;;;;;;40.13;36.55;;;;;;;;;;5037809;28;20445;-84
2021/05/19 05:07:42;;;;;;;45.30;40.75;;;;;;;;;;5038083;28;20218;-84
2021/05/19 05:10:11;;;;;;;45.03;40.83;;;;;;;;;;5037918;28;20628;-83
2021/05/19 05:12:38;;;;;;;45.53;41.13;;;;;;;;;;5038401;28;20531;-83
2021/05/19 05:15:14;;;;;;;44.90;40.60;;;;;;;;;;5038326;28;20439;-84
2021/05/19 05:17:44;;;;;;;46.63;42.07;;;;;;;;;;5038431;28;20879;-84
2021/05/19 05:20:12;;;;;;;46.10;41.37;;;;;;;;;;5037598;28;20409;-84
2021/05/19 05:22:39;;;;;;;42.77;38.67;;;;;;;;;;5037356;28;20413;-84
2021/05/19 05:25:08;;;;;;;43.13;38.90;;;;;;;;;;5036019;28;20924;-85
2021/05/19 05:27:35;;;;;;;42.43;38.63;;;;;;;;;;5018479;28;20418;-84
2021/05/19 05:30:02;;;;;;;45.33;40.83;;;;;;;;;;5036332;28;20438;-84
2021/05/19 05:32:29;;;;;;;42.50;38.60;;;;;;;;;;5035880;28;20891;-84
2021/05/19 05:34:56;;;;;;;42.40;38.60;;;;;;;;;;5036002;28;20413;-84
2021/05/19 05:37:23;;;;;;;42.40;38.77;;;;;;;;;;5035386;28;20868;-83
2021/05/19 05:39:50;;;;;;;42.90;39.00;;;;;;;;;;5035670;28;20927;-84
2021/05/19 05:42:18;;;;;;;45.57;41.30;;;;;;;;;;5036211;28;20438;-92
2021/05/19 05:44:45;;;;;;;43.10;39.27;;;;;;;;;;5019295;28;20449;-96
2021/05/19 05:47:12;;;;;;;43.40;39.70;;;;;;;;;;5042191;28;20432;-96
2021/05/19 05:49:39;;;;;;;43.53;39.77;;;;;;;;;;5048147;28;20420;-96
2021/05/19 05:52:06;;;;;;;43.53;39.77;;;;;;;;;;5042186;28;20446;-94
2021/05/19 05:54:33;;;;;;;43.63;39.37;;;;;;;;;;5038289;28;20398;-95
2021/05/19 05:57:00;;;;;;;43.50;39.60;;;;;;;;;;5039412;28;20433;-96
2021/05/19 05:59:29;;;;;;;45.67;41.50;;;;;;;;;;5036338;28;20488;-83
2021/05/19 06:01:56;;;;;;;42.13;38.27;;;;;;;;;;5019566;28;20462;-83
2021/05/19 06:04:23;;;;;;;44.00;40.10;;;;;;;;;;5044006;28;20454;-83
2021/05/19 06:06:51;;;;;;;43.33;39.10;;;;;;;;;;5039559;28;20429;-84
2021/05/19 06:09:18;;;;;;;47.00;42.60;;;;;;;;;;5039759;28;20553;-91
2021/05/19 06:11:45;;;;;;;44.90;40.80;;;;;;;;;;5024988;28;20417;-92
2021/05/19 06:14:12;;;;;;;44.83;40.53;;;;;;;;;;5041147;28;20450;-92
2021/05/19 06:16:40;;;;;;;43.33;39.43;;;;;;;;;;5023497;28;20443;-89
2021/05/19 06:19:07;;;;;;;46.60;42.23;;;;;;;;;;5039972;28;20492;-83
2021/05/19 06:21:34;;;;;;;46.23;41.67;;;;;;;;;;5037149;28;20437;-82
2021/05/19 06:24:02;;;;;;;48.93;43.83;;;;;;;;;;5035993;28;20425;-83
2021/05/19 06:26:29;;;;;;;47.20;42.70;;;;;;;;;;5038143;28;20926;-83
2021/05/19 06:28:55;;;;;;;48.83;43.90;;;;;;;;;;5019487;28;20479;-84
2021/05/19 06:31:22;;;;;;;47.13;42.67;;;;;;;;;;5038108;28;20410;-84
2021/05/19 06:33:50;;;;;;;48.33;43.40;;;;;;;;;;5036776;28;20551;-83
2021/05/19 06:36:17;;;;;;;48.63;43.83;;;;;;;;;;5037207;28;20940;-83
2021/05/19 06:38:44;;;;;;;48.80;43.17;;;;;;;;;;5038092;28;20495;-83
2021/05/19 06:41:11;;;;;;;46.77;41.93;;;;;;;;;;5040565;28;20767;-83
2021/05/19 06:43:38;;;;;;;50.07;42.23;;;;;;;;;;5039017;28;20416;-84
2021/05/19 06:46:05;;;;;;;49.93;44.37;;;;;;;;;;5023705;28;20426;-83
2021/05/19 06:48:32;;;;;;;49.20;44.23;;;;;;;;;;5036255;28;20941;-83
2021/05/19 06:51:00;;;;;;;49.80;44.70;;;;;;;;;;5034655;28;20422;-84
2021/05/19 06:53:27;;;;;;;48.60;43.50;;;;;;;;;;5017051;28;20410;-85
2021/05/19 06:55:54;;;;;;;47.10;42.30;;;;;;;;;;5034908;28;20443;-85
2021/05/19 06:58:21;;;;;;;45.53;41.03;;;;;;;;;;5034620;28;20485;-85
2021/05/19 07:00:48;;;;;;;50.20;45.07;;;;;;;;;;5035241;28;20464;-84
2021/05/19 07:03:15;;;;;;;54.77;46.00;;;;;;;;;;5034748;28;20424;-84
2021/05/19 07:05:42;;;;;;;50.53;45.00;;;;;;;;;;5035391;28;20903;-83
2021/05/19 07:08:10;;;;;;;47.83;42.70;;;;;;;;;;5036163;28;20469;-84
2021/05/19 07:10:36;;;;;;;49.43;44.33;;;;;;;;;;5035442;28;20990;-84
2021/05/19 07:13:03;;;;;;;50.53;45.53;;;;;;;;;;5038582;28;20514;-90
2021/05/19 07:15:35;;;;;;;47.10;42.30;;;;;;;;;;5039997;28;20458;-96
2021/05/19 07:18:08;;;;;;;46.77;42.07;;;;;;;;;;5036768;28;20858;-96
2021/05/19 07:20:35;;;;;;;45.90;41.60;;;;;;;;;;5036243;28;20443;-96
2021/05/19 07:23:03;;;;;;;45.43;41.23;;;;;;;;;;5035292;28;20453;-94
2021/05/19 07:25:30;;;;;;;44.37;39.93;;;;;;;;;;5018963;28;20450;-94
2021/05/19 07:27:57;;;;;;;50.57;45.83;;;;;;;;;;5036716;28;20449;-93
2021/05/19 07:30:24;;;;;;;46.10;41.77;;;;;;;;;;5037421;28;20426;-93
2021/05/19 07:32:52;;;;;;;44.50;40.40;;;;;;;;;;5037451;28;20925;-91
2021/05/19 07:35:19;;;;;;;45.03;41.07;;;;;;;;;;5047330;28;20429;-95
2021/05/19 07:37:47;;;;;;;44.07;40.17;;;;;;;;;;5038942;28;20489;-92
2021/05/19 07:40:14;;;;;;;42.63;39.13;;;;;;;;;;5037130;28;20430;-94
2021/05/19 07:42:43;;;;;;;43.03;39.00;;;;;;;;;;5038859;28;20414;-95
2021/05/19 07:45:11;;;;;;;40.70;37.33;;;;;;;;;;5042283;22;20554;-91
2021/05/19 07:47:38;;;;;;;44.47;40.93;;;;;;;;;;5016811;28;20448;-93
2021/05/19 07:50:05;;;;;;;43.20;39.70;;;;;;;;;;5015864;28;20498;-94
2021/05/19 07:52:32;;;;;;;43.17;39.13;;;;;;;;;;5017264;28;20431;-93
2021/05/19 07:57:49;;;;;;;43.53;39.73;;;;;;;;;;5101190;22;20477;-89
2021/05/19 08:00:22;;;;;;;43.17;39.33;;;;;;;;;;5035369;28;20433;-90
2021/05/19 08:02:49;;;;;;;47.13;43.13;;;;;;;;;;5041780;28;20418;-92
2021/05/19 08:05:16;;;;;;;45.03;41.30;;;;;;;;;;5044351;28;20414;-90
2021/05/19 08:07:43;;;;;;;45.77;42.00;;;;;;;;;;5042771;28;20952;-93
2021/05/19 08:10:11;;;;;;;45.57;41.67;;;;;;;;;;5058883;28;20947;-87
2021/05/19 08:12:37;;;;;;;45.07;41.23;;;;;;;;;;5061962;28;20770;-90
2021/05/19 08:15:05;;;;;;;45.53;41.83;;;;;;;;;;5062614;28;20541;-89
2021/05/19 08:17:33;;;;;;;45.93;42.13;;;;;;;;;;5044951;28;20410;-93
2021/05/19 08:20:00;;;;;;;45.50;41.60;;;;;;;;;;5068707;28;20508;-95
2021/05/19 08:22:27;;;;;;;44.20;40.40;;;;;;;;;;5064226;28;20417;-93
2021/05/19 08:24:54;;;;;;;44.07;40.57;;;;;;;;;;5062767;28;20402;-93
2021/05/19 08:27:21;;;;;;;45.70;41.87;;;;;;;;;;5064676;28;20922;-95
2021/05/19 08:29:48;;;;;;;46.20;42.17;;;;;;;;;;5065080;28;20416;-88
2021/05/19 08:32:17;;;;;;;45.83;42.17;;;;;;;;;;5065449;28;20447;-88
2021/05/19 08:34:45;;;;;;;46.20;42.50;;;;;;;;;;5064514;28;20417;-90
2021/05/19 08:37:12;;;;;;;44.40;40.80;;;;;;;;;;5062837;28;20524;-88
2021/05/19 08:39:39;;;;;;;44.97;41.30;;;;;;;;;;5062343;28;20947;-84
2021/05/19 08:42:07;;;;;;;44.60;41.00;;;;;;;;;;5063822;28;20450;-82
2021/05/19 08:44:34;;;;;;;45.50;41.50;;;;;;;;;;5065601;28;20470;-83
2021/05/19 08:47:01;;;;;;;43.33;40.03;;;;;;;;;;5047964;28;20405;-82
2021/05/19 08:49:28;;;;;;;43.57;40.23;;;;;;;;;;5058934;28;20489;-88
2021/05/19 08:51:56;;;;;;;42.13;38.67;;;;;;;;;;5057740;28;20414;-84
2021/05/19 08:54:24;;;;;;;42.50;39.20;;;;;;;;;;5058070;28;20519;-83
2021/05/19 08:56:51;;;;;;;42.17;38.70;;;;;;;;;;5060071;28;20452;-83
2021/05/19 08:59:19;;;;;;;42.60;39.20;;;;;;;;;;5058237;28;20894;-83
2021/05/19 09:01:46;;;;;;;43.83;40.30;;;;;;;;;;5057865;28;20956;-87
2021/05/19 09:04:16;;;;;;;45.70;42.17;;;;;;;;;;5057681;28;20450;-85
2021/05/19 09:06:43;;;;;;;41.47;38.07;;;;;;;;;;5058616;28;20480;-85
2021/05/19 09:09:23;;;;;;;42.10;38.80;;;;;;;;;;5059165;28;20470;-84
2021/05/19 09:11:58;;;;;;;43.10;39.70;;;;;;;;;;5060581;28;20417;-83
2021/05/19 09:14:25;;;;;;;44.63;40.83;;;;;;;;;;5057496;28;20437;-83
2021/05/19 09:16:52;;;;;;;45.00;41.13;;;;;;;;;;5057204;28;20853;-84
2021/05/19 09:19:32;;;;;;;43.03;39.67;;;;;;;;;;5058241;28;20547;-84
2021/05/19 09:21:59;;;;;;;42.33;38.97;;;;;;;;;;5041797;28;20891;-83
2021/05/19 09:24:36;;;;;;;39.70;36.50;;;;;;;;;;5058796;28;20447;-83
2021/05/19 09:27:04;;;;;;;36.83;34.23;;;;;;;;;;5056940;28;20428;-78
2021/05/19 09:29:32;;;;;;;36.73;33.73;;;;;;;;;;5039177;28;20859;-80
2021/05/19 09:32:00;;;;;;;35.17;32.40;;;;;;;;;;5038689;28;20429;-82
2021/05/19 09:34:28;;;;;;;35.47;32.97;;;;;;;;;;5057785;28;20501;-81
2021/05/19 09:37:04;;;;;;;37.37;34.27;;;;;;;;;;5057587;28;20442;-82
2021/05/19 09:39:45;;;;;;;35.50;33.00;;;;;;;;;;5057713;28;20483;-83
2021/05/19 09:42:12;;;;;;;37.93;35.17;;;;;;;;;;5058711;28;20463;-82
2021/05/19 09:44:40;;;;;;;36.57;33.90;;;;;;;;;;5058313;28;20909;-82
2021/05/19 09:47:08;;;;;;;35.13;32.50;;;;;;;;;;5057937;28;20445;-88
2021/05/19 09:49:35;;;;;;;35.03;32.63;;;;;;;;;;5056932;28;20425;-91
2021/05/19 09:52:09;;;;;;;33.83;31.23;;;;;;;;;;5058394;28;20442;-91
2021/05/19 09:54:38;;;;;;;37.80;34.50;;;;;;;;;;5039475;28;20850;-91
2021/05/19 09:57:06;;;;;;;32.43;30.10;;;;;;;;;;5057781;28;20483;-91
2021/05/19 09:59:34;;;;;;;32.17;29.87;;;;;;;;;;5057956;28;20456;-90
2021/05/19 10:02:02;;;;;;;33.03;30.53;;;;;;;;;;5065384;28;20447;-83
2021/05/19 10:04:31;;;;;;;30.43;28.53;;;;;;;;;;5066196;28;20413;-85
2021/05/19 10:06:58;;;;;;;32.67;30.13;;;;;;;;;;5066442;28;20435;-94
2021/05/19 10:09:26;;;;;;;34.03;31.00;;;;;;;;;;5049478;28;20443;-96
2021/05/19 10:11:53;;;;;;;29.40;27.47;;;;;;;;;;5066886;28;20405;-94
2021/05/19 10:14:23;;;;;;;29.60;27.50;;;;;;;;;;5066671;28;20441;-92
2021/05/19 10:16:52;;;;;;;31.53;29.20;;;;;;;;;;5065352;28;20416;-82
2021/05/19 10:19:22;;;;;;;27.60;25.80;;;;;;;;;;5046245;28;20490;-84
2021/05/19 10:21:49;;;;;;;28.63;26.83;;;;;;;;;;5061796;28;20500;-86
2021/05/19 10:24:16;;;;;;;28.63;26.73;;;;;;;;;;5058120;28;20447;-79
2021/05/19 10:27:02;;;;;;;30.03;27.87;;;;;;;;;;5059246;28;20446;-79
2021/05/19 10:29:48;;;;;;;30.43;28.23;;;;;;;;;;5043963;28;20429;-87
2021/05/19 10:32:29;;;;;;;30.13;27.83;;;;;;;;;;5064172;28;20438;-93
2021/05/19 10:34:57;;;;;;;31.33;29.20;;;;;;;;;;5067002;28;20437;-94
2021/05/19 10:37:35;;;;;;;34.70;31.90;;;;;;;;;;5064506;28;20402;-86
2021/05/19 10:40:20;;;;;;;33.17;30.77;;;;;;;;;;5061936;28;20491;-86
2021/05/19 10:42:53;;;;;;;32.03;29.83;;;;;;;;;;5062704;28;20419;-92
2021/05/19 10:45:20;;;;;;;31.50;29.30;;;;;;;;;;5064094;28;20414;-82
2021/05/19 10:47:49;;;;;;;32.90;30.50;;;;;;;;;;5062328;28;20425;-84
2021/05/19 10:50:21;;;;;;;31.23;29.07;;;;;;;;;;5043715;28;20417;-85
2021/05/19 10:58:34;;;;;;;31.67;29.37;;;;;;;;;;5060583;28;20553;-85
2021/05/19 11:01:00;;;;;;;31.43;29.33;;;;;;;;;;5061858;28;20521;-83
2021/05/19 11:03:28;;;;;;;31.30;29.27;;;;;;;;;;5060961;28;20424;-84
2021/05/19 11:06:12;;;;;;;33.00;30.90;;;;;;;;;;5062214;28;20405;-86
2021/05/19 11:08:40;;;;;;;33.07;30.70;;;;;;;;;;5060816;28;20799;-86
2021/05/19 11:11:18;;;;;;;32.73;30.43;;;;;;;;;;5060405;28;20443;-83
2021/05/19 11:14:08;;;;;;;31.50;29.27;;;;;;;;;;5061791;28;20421;-89
2021/05/19 11:16:54;;;;;;;30.97;28.77;;;;;;;;;;5064034;28;20463;-85
2021/05/19 11:19:34;;;;;;;25.63;24.13;;;;;;;;;;5040821;28;20476;-86
2021/05/19 11:22:06;;;;;;;24.73;23.20;;;;;;;;;;5064338;28;20422;-86
2021/05/19 11:24:48;;;;;;;22.27;20.87;;;;;;;;;;5062691;28;20409;-85
2021/05/19 11:27:16;;;;;;;22.00;20.80;;;;;;;;;;5062714;28;20426;-89
2021/05/19 11:29:45;;;;;;;24.73;23.10;;;;;;;;;;5065200;28;20407;-90
2021/05/19 11:32:16;;;;;;;23.67;22.27;;;;;;;;;;5068062;28;20464;-93
2021/05/19 11:34:43;;;;;;;23.70;22.20;;;;;;;;;;5061172;28;20514;-95
2021/05/19 11:37:10;;;;;;;24.07;22.67;;;;;;;;;;5043265;28;20517;-91
2021/05/19 11:39:38;;;;;;;22.93;21.43;;;;;;;;;;5064805;28;20468;-86
2021/05/19 11:42:17;;;;;;;26.17;24.37;;;;;;;;;;5065603;28;20912;-92
2021/05/19 11:44:48;;;;;;;24.10;22.30;;;;;;;;;;5058304;28;20410;-87
2021/05/19 11:47:15;;;;;;;25.47;23.77;;;;;;;;;;5057151;28;20413;-83
2021/05/19 11:49:42;;;;;;;25.10;23.50;;;;;;;;;;5056361;28;20428;-86
2021/05/19 11:52:11;;;;;;;26.40;24.50;;;;;;;;;;5057480;28;20912;-84
2021/05/19 11:54:42;;;;;;;24.47;22.50;;;;;;;;;;5038510;28;20413;-78
2021/05/19 11:57:10;;;;;;;24.10;22.50;;;;;;;;;;5054903;28;20457;-82
2021/05/19 11:59:43;;;;;;;23.43;21.70;;;;;;;;;;5057227;28;20464;-93
2021/05/19 12:02:12;;;;;;;24.40;22.33;;;;;;;;;;5062982;28;20567;-96
2021/05/19 12:04:41;;;;;;;22.17;20.87;;;;;;;;;;5052446;28;20448;-96
2021/05/19 12:07:08;;;;;;;22.33;20.83;;;;;;;;;;5056351;28;20414;-86
2021/05/19 12:09:39;;;;;;;21.23;19.87;;;;;;;;;;5056531;28;20939;-91
2021/05/19 12:12:07;;;;;;;21.60;20.40;;;;;;;;;;5056313;28;20945;-84
2021/05/19 12:14:34;;;;;;;22.33;20.93;;;;;;;;;;5059055;28;20446;-84
2021/05/19 12:17:03;;;;;;;22.63;21.03;;;;;;;;;;5060400;28;20446;-84
2021/05/19 12:19:35;;;;;;;24.20;22.37;;;;;;;;;;5054037;28;20485;-83
2021/05/19 12:22:06;;;;;;;23.87;22.17;;;;;;;;;;5054594;28;20450;-81
2021/05/19 12:24:33;;;;;;;23.20;21.43;;;;;;;;;;5053212;28;20444;-85
2021/05/19 12:27:02;;;;;;;22.50;20.90;;;;;;;;;;5054248;28;20449;-83
2021/05/19 12:29:36;;;;;;;22.50;21.00;;;;;;;;;;5036946;28;20425;-83
2021/05/19 12:32:17;;;;;;;21.97;20.67;;;;;;;;;;5062277;28;20468;-84
2021/05/19 12:34:45;;;;;;;22.00;20.70;;;;;;;;;;5058401;28;20420;-82
2021/05/19 12:37:14;;;;;;;23.53;22.03;;;;;;;;;;5054017;28;20463;-84
2021/05/19 12:39:44;;;;;;;22.23;20.70;;;;;;;;;;5054564;28;20508;-83
2021/05/19 12:42:21;;;;;;;21.67;20.37;;;;;;;;;;5054610;28;20940;-84
2021/05/19 12:44:57;;;;;;;21.77;20.37;;;;;;;;;;5053738;28;20415;-84
2021/05/19 12:47:25;;;;;;;23.33;21.80;;;;;;;;;;5053878;28;20439;-84
2021/05/19 12:49:58;;;;;;;23.30;21.80;;;;;;;;;;5057213;28;20454;-79
2021/05/19 12:52:25;;;;;;;23.23;21.93;;;;;;;;;;5056995;28;20818;-84
2021/05/19 12:54:53;;;;;;;23.83;22.37;;;;;;;;;;5056991;28;20402;-85
2021/05/19 12:57:26;;;;;;;22.63;21.33;;;;;;;;;;5056240;28;20544;-84
2021/05/19 13:00:00;;;;;;;23.53;21.93;;;;;;;;;;5056790;28;21026;-84
2021/05/19 13:02:29;;;;;;;24.07;22.60;;;;;;;;;;5056991;28;20443;-84
2021/05/19 13:04:56;;;;;;;22.83;21.47;;;;;;;;;;5056945;28;20435;-85
2021/05/19 13:07:24;;;;;;;22.90;21.60;;;;;;;;;;5056849;28;20440;-85
2021/05/19 13:09:55;;;;;;;23.10;21.60;;;;;;;;;;5038744;28;21047;-85
2021/05/19 13:12:25;;;;;;;21.83;20.50;;;;;;;;;;5056548;28;20426;-83
2021/05/19 13:14:56;;;;;;;23.47;21.87;;;;;;;;;;5057469;28;20507;-85
2021/05/19 13:17:35;;;;;;;22.87;21.50;;;;;;;;;;5056862;28;20876;-85
2021/05/19 13:20:05;;;;;;;24.00;21.87;;;;;;;;;;5057098;28;20541;-84
2021/05/19 13:22:32;;;;;;;23.33;21.80;;;;;;;;;;5056439;28;20453;-84
2021/05/19 13:24:59;;;;;;;24.70;23.00;;;;;;;;;;5056337;28;20472;-84
2021/05/19 13:27:27;;;;;;;24.20;22.67;;;;;;;;;;5056230;28;20903;-83
2021/05/19 13:29:56;;;;;;;24.67;23.30;;;;;;;;;;5039653;28;20474;-84
2021/05/19 13:32:34;;;;;;;25.07;23.40;;;;;;;;;;5057180;28;20943;-84
2021/05/19 13:37:50;;;;;;;25.30;23.50;;;;;;;;;;5058114;28;20416;-83
2021/05/19 13:40:17;;;;;;;26.30;24.60;;;;;;;;;;5058230;28;20831;-84
2021/05/19 13:42:44;;;;;;;25.87;24.20;;;;;;;;;;5064584;28;20445;-83
2021/05/19 13:45:13;;;;;;;25.37;23.77;;;;;;;;;;5049759;28;20446;-84
2021/05/19 13:47:40;;;;;;;25.33;23.77;;;;;;;;;;5066207;28;20407;-83
2021/05/19 13:50:08;;;;;;;24.63;23.23;;;;;;;;;;5075545;28;20413;-83
2021/05/19 13:52:36;;;;;;;24.13;22.73;;;;;;;;;;5065017;28;20450;-83
2021/05/19 13:55:05;;;;;;;25.37;23.50;;;;;;;;;;5060410;28;20435;-83
2021/05/19 13:57:32;;;;;;;24.50;22.90;;;;;;;;;;5059084;28;20457;-84
2021/05/19 14:00:00;;;;;;;23.80;22.40;;;;;;;;;;5044815;28;20540;-83
2021/05/19 14:05:14;;;;;;;24.20;22.60;;;;;;;;;;5068393;28;20420;-84
2021/05/19 14:07:41;;;;;;;23.03;21.63;;;;;;;;;;5070834;28;20480;-84
2021/05/19 14:10:12;;;;;;;23.73;22.13;;;;;;;;;;5070096;28;20490;-83
2021/05/19 14:12:41;;;;;;;23.50;22.20;;;;;;;;;;5068009;28;20447;-84
2021/05/19 14:15:14;;;;;;;23.83;22.43;;;;;;;;;;5060217;28;20444;-88
2021/05/19 14:17:53;;;;;;;24.70;23.20;;;;;;;;;;5060863;28;20862;-88
2021/05/19 14:28:49;;;;;;;23.63;22.33;;;;;;;;;;5069844;28;20974;-78
2021/05/19 14:31:15;;;;;;;23.93;22.47;;;;;;;;;;5068046;28;20422;-92
2021/05/19 14:33:46;;;;;;;25.40;23.50;;;;;;;;;;5069833;28;20422;-95
2021/05/19 15:01:09;;;;;;;22.30;21.10;;;;;;;;;;4939755;29;20415;-92
2021/05/19 15:03:36;;;;;;;22.50;21.10;;;;;;;;;;4942448;29;20453;-87
2021/05/19 15:06:04;;;;;;;108.97;71.03;;;;;;;;;;4939766;29;20444;-87
2021/05/19 15:08:31;;;;;;;25.03;23.53;;;;;;;;;;4939188;29;20484;-85
2021/05/19 15:11:00;;;;;;;23.43;22.13;;;;;;;;;;4938704;29;20428;-84
2021/05/19 15:13:28;;;;;;;46.73;41.73;;;;;;;;;;4960684;28;20437;-85
2021/05/19 15:15:55;;;;;;;73.43;65.70;;;;;;;;;;4974716;28;20410;-83